.
WxDataArchive / Data Records for 2012-02-28
2012-02-27 February 2012 2012-02-29

Data Records for Tuesday, 28 February 2012

Time	Temp	Chill	HIndex	Humid	Dewpt	 Wind 	HiWind	WindDir	Rain 	Barom 
-----	----	-----	------	-----	-----	------	------	-------	-----	----- 
00:00	23.3	23.3	23.3	81	18.3	0	0	---	0.00	30.512 
00:05	23.2	23.2	23.2	81	18.3	0	0	---	0.00	30.512 
00:10	23.2	23.2	23.2	82	18.5	0	0	---	0.00	30.512 
00:15	23.0	23.0	23.0	82	18.3	0	0	---	0.00	30.514 
00:20	23.0	23.0	23.0	82	18.3	0	0	---	0.00	30.514 
00:25	22.9	22.9	22.9	82	18.2	0	0	---	0.00	30.514 
00:30	22.7	22.7	22.7	82	18.0	0	0	---	0.00	30.512 
00:35	22.5	22.5	22.5	82	17.9	0	0	---	0.00	30.512 
00:40	22.4	22.4	22.4	83	18.0	0	0	---	0.00	30.512 
00:45	22.2	22.2	22.2	83	17.8	0	0	---	0.00	30.513 
00:50	22.2	22.2	22.2	83	17.8	0	0	---	0.00	30.513 
00:55	22.1	22.1	22.1	83	17.7	0	0	---	0.00	30.513 
01:00	21.9	21.9	21.9	83	17.5	0	0	---	0.00	30.509 
01:05	21.8	21.8	21.8	84	17.7	0	0	---	0.00	30.509 
01:10	21.8	21.8	21.8	84	17.7	0	0	---	0.00	30.509 
01:15	21.6	21.6	21.6	84	17.5	0	0	---	0.00	30.509 
01:20	21.6	21.6	21.6	84	17.5	0	0	---	0.00	30.509 
01:25	21.6	21.6	21.6	84	17.5	0	0	---	0.00	30.509 
01:30	21.4	21.4	21.4	84	17.3	0	0	---	0.00	30.511 
01:35	21.4	21.4	21.4	85	17.6	0	0	---	0.00	30.511 
01:40	21.4	21.4	21.4	85	17.6	0	0	---	0.00	30.511 
01:45	21.3	21.3	21.3	85	17.5	0	0	---	0.00	30.506 
01:50	21.1	21.1	21.1	85	17.3	0	0	---	0.00	30.506 
01:55	21.1	21.1	21.1	85	17.3	0	0	---	0.00	30.506 
02:00	21.0	21.0	21.0	85	17.2	0	0	---	0.00	30.509 
02:05	21.0	21.0	21.0	85	17.2	0	0	---	0.00	30.509 
02:10	21.0	21.0	21.0	85	17.2	0	0	---	0.00	30.509 
02:15	20.8	20.8	20.8	86	17.3	0	0	---	0.00	30.506 
02:20	20.8	20.8	20.8	86	17.3	0	0	---	0.00	30.506 
02:25	20.6	20.6	20.6	86	17.1	0	0	---	0.00	30.506 
02:30	20.5	20.5	20.5	86	17.0	0	0	---	0.00	30.501 
02:35	20.5	20.5	20.5	86	17.0	0	0	---	0.00	30.501 
02:40	20.5	20.5	20.5	86	17.0	0	0	---	0.00	30.501 
02:45	20.3	20.3	20.3	86	16.8	0	0	---	0.00	30.504 
02:50	20.5	20.5	20.5	87	17.3	0	0	---	0.00	30.504 
02:55	20.3	20.3	20.3	87	17.1	0	0	---	0.00	30.504 
03:00	20.3	20.3	20.3	87	17.1	0	0	---	0.00	30.506 
03:05	20.2	20.2	20.2	87	17.0	0	0	---	0.00	30.506 
03:10	20.2	20.2	20.2	87	17.0	0	0	---	0.00	30.506 
03:15	20.0	20.0	20.0	87	16.8	0	0	---	0.00	30.502 
03:20	20.0	20.0	20.0	87	16.8	0	0	---	0.00	30.502 
03:25	19.9	19.9	19.9	87	16.7	0	0	---	0.00	30.502 
03:30	19.9	19.9	19.9	87	16.7	0	0	---	0.00	30.502 
03:35	19.9	19.9	19.9	87	16.7	0	0	---	0.00	30.502 
03:40	19.7	19.7	19.7	87	16.5	0	0	---	0.00	30.502 
03:45	19.7	19.7	19.7	87	16.5	0	0	---	0.00	30.502 
03:50	19.7	19.7	19.7	88	16.7	0	0	---	0.00	30.502 
03:55	19.5	19.5	19.5	88	16.5	0	0	---	0.00	30.502 
04:00	19.5	19.5	19.5	88	16.5	0	0	---	0.00	30.500 
04:05	19.5	19.5	19.5	88	16.5	0	0	---	0.00	30.500 
04:10	19.4	19.4	19.4	88	16.4	0	0	---	0.00	30.500 
04:15	19.4	19.4	19.4	88	16.4	0	0	---	0.00	30.503 
04:20	19.2	19.2	19.2	88	16.2	0	0	---	0.00	30.503 
04:25	19.2	19.2	19.2	88	16.2	0	0	---	0.00	30.503 
04:30	19.2	19.2	19.2	88	16.2	0	0	---	0.00	30.502 
04:35	19.2	19.2	19.2	88	16.2	0	0	---	0.00	30.502 
04:40	19.1	19.1	19.1	88	16.1	0	0	---	0.00	30.502 
04:45	19.1	19.1	19.1	88	16.1	0	0	---	0.00	30.503 
04:50	19.1	19.1	19.1	88	16.1	0	0	---	0.00	30.503 
04:55	19.1	19.1	19.1	88	16.1	0	0	---	0.00	30.503 
05:00	18.9	18.9	18.9	88	15.9	0	0	---	0.00	30.500 
05:05	18.9	18.9	18.9	88	15.9	0	0	---	0.00	30.500 
05:10	18.8	18.8	18.8	88	15.8	0	0	---	0.00	30.500 
05:15	18.6	18.6	18.6	88	15.6	0	0	---	0.00	30.490 
05:20	18.6	18.6	18.6	88	15.6	0	0	---	0.00	30.490 
05:25	18.6	18.6	18.6	88	15.6	0	0	---	0.00	30.490 
05:30	18.8	18.8	18.8	88	15.8	0	0	---	0.00	30.500 
05:35	18.8	18.8	18.8	88	15.8	0	0	---	0.00	30.500 
05:40	18.8	18.8	18.8	88	15.8	0	0	---	0.00	30.500 
05:45	18.8	18.8	18.8	88	15.8	0	0	---	0.00	30.504 
05:50	18.8	18.8	18.8	88	15.8	0	0	---	0.00	30.504 
05:55	18.6	18.6	18.6	88	15.6	0	0	---	0.00	30.504 
06:00	18.6	18.6	18.6	88	15.6	0	0	---	0.00	30.499 
06:05	18.6	18.6	18.6	88	15.6	0	0	---	0.00	30.499 
06:10	18.4	18.4	18.4	88	15.5	0	0	---	0.00	30.499 
06:15	18.4	18.4	18.4	89	15.7	0	0	---	0.00	30.499 
06:20	18.6	18.6	18.6	89	15.9	0	0	---	0.00	30.499 
06:25	18.6	18.6	18.6	89	15.9	0	0	---	0.00	30.499 
06:30	18.6	18.6	18.6	89	15.9	0	0	---	0.00	30.499 
06:35	18.8	18.8	18.8	89	16.1	0	0	---	0.00	30.499 
06:40	18.8	18.8	18.8	89	16.1	0	0	---	0.00	30.499 
06:45	18.8	18.8	18.8	89	16.1	0	0	---	0.00	30.494 
06:50	18.9	18.9	18.9	89	16.2	0	0	---	0.00	30.494 
06:55	19.1	19.1	19.1	89	16.4	0	0	---	0.00	30.494 
07:00	19.1	19.1	19.1	89	16.4	0	0	---	0.00	30.503 
07:05	19.1	19.1	19.1	89	16.4	0	0	---	0.00	30.503 
07:10	19.1	19.1	19.1	89	16.4	0	0	---	0.00	30.503 
07:15	19.1	19.1	19.1	89	16.4	0	0	---	0.00	30.510 
07:20	19.1	19.1	19.1	89	16.4	0	0	---	0.00	30.510 
07:25	19.1	19.1	19.1	89	16.4	0	0	---	0.00	30.510 
07:30	19.1	19.1	19.1	89	16.4	0	0	---	0.00	30.511 
07:35	19.1	19.1	19.1	89	16.4	0	0	---	0.00	30.511 
07:40	19.2	19.2	19.2	89	16.5	0	0	---	0.00	30.511 
07:45	19.4	19.4	19.4	89	16.7	0	0	---	0.00	30.512 
07:50	19.5	19.5	19.5	89	16.8	0	0	---	0.00	30.512 
07:55	19.9	19.9	19.9	90	17.5	0	0	---	0.00	30.512 
08:00	20.0	20.0	20.0	90	17.5	0	0	---	0.00	30.515 
08:05	20.5	20.5	20.5	90	18.0	0	0	---	0.00	30.515 
08:10	21.0	21.0	21.0	90	18.5	0	0	---	0.00	30.515 
08:15	21.6	21.6	21.6	90	19.1	0	0	---	0.00	30.525 
08:20	22.2	22.2	22.2	91	20.0	0	0	---	0.00	30.525 
08:25	22.9	22.9	22.9	91	20.7	0	0	---	0.00	30.525 
08:30	23.6	23.6	23.6	91	21.4	0	1	270	0.00	30.516 
08:35	24.4	24.4	24.4	91	22.2	0	1	270	0.00	30.516 
08:40	25.0	25.0	25.0	91	22.8	0	1	270	0.00	30.516 
08:45	25.8	25.8	25.8	90	23.3	0	1	270	0.00	30.515 
08:50	26.6	26.6	26.6	90	24.1	0	1	270	0.00	30.515 
08:55	27.2	27.2	27.2	88	24.1	0	1	270	0.00	30.515 
09:00	27.8	27.8	27.8	88	24.7	0	1	270	0.00	30.519 
09:05	28.1	28.1	28.1	84	23.9	0	2	270	0.00	30.519 
09:10	28.5	28.5	28.5	84	24.3	0	2	270	0.00	30.519 
09:15	29.1	29.1	29.1	82	24.3	1	4	90	0.00	30.517 
09:20	29.7	29.7	29.7	81	24.6	1	3	90	0.00	30.517 
09:25	30.0	30.0	30.0	79	24.3	1	4	90	0.00	30.517 
09:30	30.6	30.6	30.6	79	24.9	1	2	90	0.00	30.503 
09:35	31.2	31.2	31.2	78	25.2	2	4	90	0.00	30.503 
09:40	31.9	31.9	31.9	76	25.2	1	2	90	0.00	30.503 
09:45	32.4	32.4	32.4	72	24.4	2	7	112	0.00	30.498 
09:50	32.4	32.4	32.4	73	24.7	2	6	112	0.00	30.498 
09:55	32.8	32.8	32.8	72	24.8	2	6	112	0.00	30.498 
10:00	33.1	33.1	33.1	72	25.1	2	6	112	0.00	30.488 
10:05	33.5	33.5	33.5	69	24.4	3	7	112	0.00	30.488 
10:10	34.0	34.0	34.0	69	24.9	2	5	90	0.00	30.488 
10:15	34.1	34.1	34.1	68	24.7	3	6	90	0.00	30.487 
10:20	34.4	34.4	34.4	66	24.2	3	6	90	0.00	30.487 
10:25	34.6	31.1	34.6	65	24.1	4	9	112	0.00	30.487 
10:30	34.7	34.7	34.7	66	24.5	3	10	112	0.00	30.477 
10:35	34.9	31.4	34.9	66	24.7	4	10	90	0.00	30.477 
10:40	35.5	35.5	35.5	64	24.5	3	7	90	0.00	30.477 
10:45	35.3	35.3	35.3	64	24.4	2	5	90	0.00	30.472 
10:50	35.6	35.6	35.6	65	25.0	3	7	90	0.00	30.472 
10:55	35.9	35.9	35.9	63	24.5	2	5	135	0.00	30.472 
11:00	36.3	36.3	36.3	62	24.5	3	6	90	0.00	30.460 
11:05	36.6	36.6	36.6	62	24.8	3	6	112	0.00	30.460 
11:10	36.8	36.8	36.8	61	24.6	3	6	90	0.00	30.460 
11:15	37.0	37.0	37.0	61	24.8	3	9	90	0.00	30.449 
11:20	37.0	37.0	37.0	62	25.2	3	10	112	0.00	30.449 
11:25	37.0	37.0	37.0	62	25.2	3	7	90	0.00	30.449 
11:30	37.0	33.9	37.0	60	24.4	4	7	90	0.00	30.448 
11:35	36.9	33.7	36.9	61	24.7	4	10	112	0.00	30.448 
11:40	36.9	36.9	36.9	62	25.1	3	7	90	0.00	30.448 
11:45	37.5	37.5	37.5	61	25.3	3	9	68	0.00	30.439 
11:50	37.6	37.6	37.6	61	25.4	2	7	135	0.00	30.439 
11:55	37.5	37.5	37.5	62	25.7	2	6	90	0.00	30.439 
12:00	37.6	37.6	37.6	60	25.0	2	6	90	0.00	30.440 
12:05	38.0	38.0	38.0	62	26.2	2	6	112	0.00	30.440 
12:10	38.3	38.3	38.3	58	24.8	2	6	90	0.00	30.440 
12:15	38.3	38.3	38.3	59	25.2	1	7	90	0.00	30.434 
12:20	38.5	38.5	38.5	58	25.0	2	6	90	0.00	30.434 
12:25	38.5	38.5	38.5	57	24.6	1	3	90	0.00	30.434 
12:30	38.8	38.8	38.8	57	24.9	1	5	90	0.00	30.423 
12:35	39.1	39.1	39.1	57	25.2	2	6	112	0.00	30.423 
12:40	39.3	39.3	39.3	57	25.4	3	10	112	0.00	30.423 
12:45	39.3	35.7	39.3	55	24.5	5	9	90	0.00	30.404 
12:50	39.5	39.5	39.5	55	24.7	3	9	90	0.00	30.404 
12:55	39.6	39.6	39.6	57	25.6	2	5	112	0.00	30.404 
13:00	39.8	39.8	39.8	55	25.0	2	6	90	0.00	30.388 
13:05	39.8	39.8	39.8	54	24.5	2	4	90	0.00	30.388 
13:10	39.9	39.9	39.9	54	24.6	2	5	112	0.00	30.388 
13:15	39.9	39.9	39.9	55	25.1	3	6	90	0.00	30.379 
13:20	40.1	40.1	40.1	54	24.8	2	6	112	0.00	30.379 
13:25	40.3	40.3	40.3	54	25.0	2	6	90	0.00	30.379 
13:30	40.5	40.5	40.5	54	25.2	3	7	90	0.00	30.372 
13:35	40.9	40.9	40.9	55	26.0	2	5	68	0.00	30.372 
13:40	41.6	41.6	41.6	54	26.2	1	7	68	0.00	30.372 
13:45	41.8	41.8	41.8	53	25.9	2	7	90	0.00	30.357 
13:50	41.6	41.6	41.6	51	24.8	2	4	90	0.00	30.357 
13:55	41.6	41.6	41.6	51	24.8	2	6	112	0.00	30.357 
14:00	41.5	41.5	41.5	52	25.2	1	6	90	0.00	30.345 
14:05	41.5	41.5	41.5	51	24.7	2	6	68	0.00	30.345 
14:10	41.6	41.6	41.6	51	24.8	2	7	112	0.00	30.345 
14:15	41.8	41.8	41.8	52	25.5	2	5	112	0.00	30.338 
14:20	41.9	41.9	41.9	53	26.0	3	10	112	0.00	30.338 
14:25	41.5	41.5	41.5	52	25.2	3	9	90	0.00	30.338 
14:30	41.2	41.2	41.2	52	24.9	3	5	112	0.00	30.328 
14:35	41.2	41.2	41.2	53	25.4	2	5	112	0.00	30.328 
14:40	41.3	41.3	41.3	53	25.5	1	4	112	0.00	30.328 
14:45	41.6	41.6	41.6	53	25.8	2	7	90	0.00	30.324 
14:50	41.8	41.8	41.8	52	25.5	2	7	112	0.00	30.324 
14:55	42.1	42.1	42.1	51	25.3	2	5	112	0.00	30.324 
15:00	42.3	42.3	42.3	51	25.5	2	5	90	0.00	30.324 
15:05	42.8	42.8	42.8	52	26.4	2	10	112	0.00	30.324 
15:10	42.9	42.9	42.9	51	26.0	3	7	90	0.00	30.324 
15:15	43.2	43.2	43.2	51	26.3	2	5	90	0.00	30.314 
15:20	43.3	43.3	43.3	51	26.4	2	7	112	0.00	30.314 
15:25	43.3	43.3	43.3	50	25.9	2	6	90	0.00	30.314 
15:30	43.3	43.3	43.3	50	25.9	1	3	112	0.00	30.307 
15:35	43.5	43.5	43.5	49	25.6	2	7	112	0.00	30.307 
15:40	43.5	43.5	43.5	50	26.1	2	6	112	0.00	30.307 
15:45	43.5	43.5	43.5	49	25.6	1	3	68	0.00	30.293 
15:50	43.6	43.6	43.6	50	26.2	2	5	112	0.00	30.293 
15:55	43.6	43.6	43.6	49	25.7	1	4	112	0.00	30.293 
16:00	43.8	43.8	43.8	49	25.9	2	6	112	0.00	30.290 
16:05	43.8	43.8	43.8	50	26.4	3	6	112	0.00	30.290 
16:10	43.8	43.8	43.8	49	25.9	3	6	112	0.00	30.290 
16:15	43.6	43.6	43.6	50	26.2	2	5	112	0.00	30.280 
16:20	43.8	43.8	43.8	49	25.9	1	5	112	0.00	30.280 
16:25	43.6	43.6	43.6	50	26.2	2	7	90	0.00	30.280 
16:30	43.3	43.3	43.3	50	25.9	3	5	112	0.00	30.270 
16:35	43.3	43.3	43.3	50	25.9	2	6	112	0.00	30.270 
16:40	43.3	43.3	43.3	48	24.9	3	5	112	0.00	30.270 
16:45	43.5	43.5	43.5	48	25.1	2	6	112	0.00	30.262 
16:50	43.5	43.5	43.5	47	24.6	2	4	112	0.00	30.262 
16:55	43.6	43.6	43.6	47	24.7	3	6	112	0.00	30.262 
17:00	43.5	43.5	43.5	48	25.1	3	7	90	0.00	30.249 
17:05	43.5	43.5	43.5	48	25.1	2	4	112	0.00	30.249 
17:10	43.5	43.5	43.5	48	25.1	2	4	135	0.00	30.249 
17:15	43.5	43.5	43.5	49	25.6	1	3	112	0.00	30.259 
17:20	43.5	43.5	43.5	49	25.6	0	2	68	0.00	30.259 
17:25	43.5	43.5	43.5	49	25.6	2	6	68	0.00	30.259 
17:30	43.5	43.5	43.5	49	25.6	1	4	90	0.00	30.257 
17:35	43.3	43.3	43.3	49	25.4	2	4	90	0.00	30.257 
17:40	43.3	43.3	43.3	50	25.9	2	6	90	0.00	30.257 
17:45	43.3	43.3	43.3	50	25.9	2	5	90	0.00	30.245 
17:50	43.3	43.3	43.3	50	25.9	2	6	90	0.00	30.245 
17:55	43.3	43.3	43.3	50	25.9	3	6	90	0.00	30.245 
18:00	43.3	43.3	43.3	50	25.9	2	5	112	0.00	30.240 
18:05	43.2	43.2	43.2	50	25.8	2	4	112	0.00	30.240 
18:10	43.2	43.2	43.2	50	25.8	2	5	112	0.00	30.240 
18:15	43.2	43.2	43.2	50	25.8	3	5	112	0.00	30.230 
18:20	43.1	43.1	43.1	51	26.2	2	4	68	0.00	30.230 
18:25	43.1	43.1	43.1	50	25.7	3	6	90	0.00	30.230 
18:30	43.1	43.1	43.1	51	26.2	2	4	68	0.00	30.230 
18:35	42.9	42.9	42.9	52	26.5	2	6	112	0.00	30.230 
18:40	42.9	42.9	42.9	52	26.5	1	4	90	0.00	30.230 
18:45	42.8	42.8	42.8	51	25.9	2	4	90	0.00	30.237 
18:50	42.9	42.9	42.9	52	26.5	2	4	112	0.00	30.237 
18:55	42.8	42.8	42.8	53	26.9	1	4	112	0.00	30.237 
19:00	42.6	42.6	42.6	54	27.1	2	5	112	0.00	30.233 
19:05	42.3	42.3	42.3	57	28.2	3	5	112	0.00	30.233 
19:10	42.2	42.2	42.2	59	28.9	3	7	90	0.00	30.233 
19:15	41.9	41.9	41.9	60	29.0	2	5	90	0.00	30.234 
19:20	41.8	41.8	41.8	60	28.9	3	6	90	0.00	30.234 
19:25	41.6	41.6	41.6	61	29.2	2	5	90	0.00	30.234 
19:30	41.5	41.5	41.5	62	29.5	3	5	90	0.00	30.229 
19:35	41.5	41.5	41.5	62	29.5	3	7	90	0.00	30.229 
19:40	41.5	41.5	41.5	62	29.5	3	7	90	0.00	30.229 
19:45	41.3	41.3	41.3	62	29.3	3	5	90	0.00	30.228 
19:50	41.3	41.3	41.3	62	29.3	3	5	90	0.00	30.228 
19:55	41.3	41.3	41.3	62	29.3	2	6	112	0.00	30.228 
20:00	41.3	41.3	41.3	61	28.9	3	7	90	0.00	30.227 
20:05	41.3	41.3	41.3	62	29.3	3	7	90	0.00	30.227 
20:10	41.3	38.8	41.3	61	28.9	4	11	90	0.00	30.227 
20:15	41.3	41.3	41.3	62	29.3	3	7	112	0.00	30.207 
20:20	41.2	38.7	41.2	62	29.2	4	9	90	0.00	30.207 
20:25	41.2	41.2	41.2	62	29.2	3	9	90	0.00	30.207 
20:30	41.1	41.1	41.1	62	29.1	3	7	90	0.00	30.196 
20:35	41.1	38.6	41.1	62	29.1	4	9	90	0.00	30.196 
20:40	41.1	41.1	41.1	62	29.1	3	7	90	0.00	30.196 
20:45	40.9	40.9	40.9	63	29.3	3	6	90	0.00	30.192 
20:50	40.8	38.2	40.8	63	29.2	4	7	112	0.00	30.192 
20:55	40.8	38.2	40.8	63	29.2	4	7	112	0.00	30.192 
21:00	40.6	40.6	40.6	64	29.4	3	6	90	0.00	30.185 
21:05	40.6	40.6	40.6	64	29.4	3	7	90	0.00	30.185 
21:10	40.6	38.0	40.6	63	29.0	4	7	90	0.00	30.185 
21:15	40.6	38.0	40.6	63	29.0	4	6	90	0.00	30.170 
21:20	40.6	38.0	40.6	63	29.0	4	10	112	0.00	30.170 
21:25	40.8	37.4	40.8	63	29.2	5	10	90	0.00	30.170 
21:30	40.6	37.2	40.6	63	29.0	5	10	90	0.00	30.159 
21:35	40.6	38.0	40.6	63	29.0	4	7	90	0.00	30.159 
21:40	40.6	38.0	40.6	63	29.0	4	6	90	0.00	30.159 
21:45	40.6	38.0	40.6	63	29.0	4	7	90	0.00	30.147 
21:50	40.6	37.2	40.6	63	29.0	5	10	90	0.00	30.147 
21:55	40.6	38.0	40.6	63	29.0	4	9	112	0.00	30.147 
22:00	40.6	37.2	40.6	63	29.0	5	11	90	0.00	30.124 
22:05	40.5	37.9	40.5	63	28.9	4	9	90	0.00	30.124 
22:10	40.6	37.2	40.6	63	29.0	5	12	90	0.00	30.124 
22:15	40.6	38.0	40.6	63	29.0	4	10	90	0.00	30.122 
22:20	40.5	37.1	40.5	64	29.3	5	10	90	0.00	30.122 
22:25	40.5	37.1	40.5	64	29.3	5	9	90	0.00	30.122 
22:30	40.3	37.7	40.3	65	29.5	4	7	90	0.00	30.116 
22:35	40.2	36.7	40.2	65	29.4	5	9	112	0.00	30.116 
22:40	40.1	37.4	40.1	66	29.7	4	9	90	0.00	30.116 
22:45	39.9	37.2	39.9	68	30.2	4	10	90	0.00	30.100 
22:50	39.6	36.9	39.6	70	30.6	4	10	90	0.00	30.100 
22:55	39.2	35.5	39.2	71	30.6	5	10	90	0.00	30.100 
23:00	38.9	34.4	38.9	72	30.7	6	14	90	0.00	30.077 
23:05	38.8	35.1	38.8	73	30.9	5	10	90	0.00	30.077 
23:10	38.6	34.8	38.6	73	30.7	5	10	90	0.00	30.077 
23:15	38.5	34.7	38.5	73	30.6	5	11	90	0.00	30.064 
23:20	38.3	38.3	38.3	75	31.1	3	6	90	0.00	30.064 
23:25	38.2	34.4	38.2	75	31.0	5	9	90	0.00	30.064 
23:30	38.0	38.0	38.0	75	30.8	3	6	90	0.00	30.065 
23:35	38.0	35.0	38.0	75	30.8	4	8	90	0.00	30.065 
23:40	37.9	34.9	37.9	76	31.0	4	7	90	0.00	30.065 
23:45	37.9	34.9	37.9	75	30.7	4	10	90	0.00	30.043 
23:50	37.8	34.8	37.8	77	31.2	4	9	90	0.00	30.043 
23:55	37.6	33.7	37.6	77	31.1	5	12	112	0.00	30.043 

CoCoRaHS
IN-AL-39
A2 Web Hosting
Creative Commons License
GoDaddy
search engine by freefind advanced

loaded 2018-11-19 11:27:29 • last modified 2010-11-18 10:43:29
Privacy PolicyDisclaimer
• wx.awcolley.com is powered by PmWiki v.2002016 •
• all content (unless otherwise noted) © 2018 A W Colley